Time;durP1;ratioP1;P1;durP2;ratioP2;P2;SDS_P1;SDS_P2;PMS_P1;PMS_P2;Temp;Humidity;BMP_temperature;BMP_pressure;BME280_temperature;BME280_humidity;BME280_pressure;Samples;Min_cycle;Max_cycle;Signal;HPM_P1;HPM_P2
2022/03/07 00:00:15;;;;;;;;;;;;;;;;;;1031547;28;899;-37
2022/03/07 00:00:45;;;;;;;;;;;;;;;;;;1031606;28;951;-38
2022/03/07 00:01:16;;;;;;;;;;;;;;;;;;1031556;28;1001;-38
2022/03/07 00:01:46;;;;;;;;;;;;;;;;;;1031523;28;866;-37
2022/03/07 00:02:16;;;;;;;;;;;;;;;;;;1031549;28;887;-38
2022/03/07 00:02:47;;;;;;;;;;;;;;;;;;1031668;28;872;-38
2022/03/07 00:03:18;;;;;;;;;;;;;;;;;;1031483;28;879;-37
2022/03/07 00:03:48;;;;;;;;;;;;;;;;;;1031633;28;823;-38
2022/03/07 00:04:18;;;;;;;;;;;;;;;;;;1031499;28;768;-37
2022/03/07 00:04:49;;;;;;;;;;;;;;;;;;1031643;28;934;-37
2022/03/07 00:05:19;;;;;;;;;;;;;;;;;;1031516;28;831;-37
2022/03/07 00:05:49;;;;;;;;;;;;;;;;;;1031596;28;978;-37
2022/03/07 00:06:20;;;;;;;;;;;;;;;;;;1030877;28;827;-37
2022/03/07 00:06:50;;;;;;;;;;;;;;;;;;1031584;28;847;-36
2022/03/07 00:07:21;;;;;;;;;;;;;;;;;;1031407;28;918;-38
2022/03/07 00:07:51;;;;;;;;;;;;;;;;;;1033851;28;1111;-38
2022/03/07 00:08:21;;;;;;;;;;;;;;;;;;1035639;28;1021;-37
2022/03/07 00:08:52;;;;;;;;;;;;;;;;;;1035658;28;899;-39
2022/03/07 00:09:22;;;;;;;;;;;;;;;;;;1035533;28;839;-37
2022/03/07 00:09:52;;;;;;;;;;;;;;;;;;1035507;28;792;-37
2022/03/07 00:10:23;;;;;;;;;;;;;;;;;;1031171;28;890;-36
2022/03/07 00:10:53;;;;;;;;;;;;;;;;;;1031109;28;808;-37
2022/03/07 00:11:23;;;;;;;;;;;;;;;;;;1031159;28;1039;-33
2022/03/07 00:11:54;;;;;;;;;;;;;;;;;;1031202;28;792;-37
2022/03/07 00:12:25;;;;;;;;;;;;;;;;;;1035561;28;1092;-35
2022/03/07 00:12:55;;;;;;;;;;;;;;;;;;1035506;28;1121;-37
2022/03/07 00:13:26;;;;;;;;;;;;;;;;;;1035665;28;843;-38
2022/03/07 00:13:56;;;;;;;;;;;;;;;;;;1034911;28;879;-36
2022/03/07 00:14:26;;;;;;;;;;;;;;;;;;1035669;28;942;-35
2022/03/07 00:14:57;;;;;;;;;;;;;;;;;;1035552;28;870;-36
2022/03/07 00:15:27;;;;;;;;;;;;;;;;;;1035690;28;879;-37
2022/03/07 00:15:57;;;;;;;;;;;;;;;;;;1035523;28;918;-36
2022/03/07 00:16:28;;;;;;;;;;;;;;;;;;1035524;28;875;-37
2022/03/07 00:16:59;;;;;;;;;;;;;;;;;;1035562;28;1977;-36
2022/03/07 00:17:29;;;;;;;;;;;;;;;;;;1035587;28;820;-37
2022/03/07 00:17:59;;;;;;;;;;;;;;;;;;1035597;28;806;-38
2022/03/07 00:18:30;;;;;;;;;;;;;;;;;;1035632;28;801;-36
2022/03/07 00:19:00;;;;;;;;;;;;;;;;;;1035432;28;855;-37
2022/03/07 00:19:31;;;;;;;;;;;;;;;;;;1035597;28;925;-38
2022/03/07 00:20:02;;;;;;;;;;;;;;;;;;1035692;28;961;-35
2022/03/07 00:20:32;;;;;;;;;;;;;;;;;;1035326;28;938;-37
2022/03/07 00:21:03;;;;;;;;;;;;;;;;;;1035537;28;811;-35
2022/03/07 00:21:34;;;;;;;;;;;;;;;;;;1034997;28;945;-38
2022/03/07 00:22:04;;;;;;;;;;;;;;;;;;1035702;28;862;-36
2022/03/07 00:22:34;;;;;;;;;;;;;;;;;;1035484;28;1608;-37
2022/03/07 00:23:05;;;;;;;;;;;;;;;;;;1035605;28;894;-37
2022/03/07 00:23:35;;;;;;;;;;;;;;;;;;1035524;28;883;-37
2022/03/07 00:24:07;;;;;;;;;;;;;;;;;;1035594;28;1005;-38
2022/03/07 00:24:37;;;;;;;;;;;;;;;;;;1035434;28;1191;-35
2022/03/07 00:25:07;;;;;;;;;;;;;;;;;;1034720;28;1121;-36
2022/03/07 00:25:38;;;;;;;;;;;;;;;;;;1031292;28;835;-36
2022/03/07 00:26:08;;;;;;;;;;;;;;;;;;1031604;28;1068;-35
2022/03/07 00:26:39;;;;;;;;;;;;;;;;;;1031301;28;807;-37
2022/03/07 00:27:09;;;;;;;;;;;;;;;;;;1031386;28;812;-38
2022/03/07 00:27:39;;;;;;;;;;;;;;;;;;1031283;28;808;-37
2022/03/07 00:28:10;;;;;;;;;;;;;;;;;;1031529;28;929;-37
2022/03/07 00:28:40;;;;;;;;;;;;;;;;;;1030728;28;942;-37
2022/03/07 00:29:11;;;;;;;;;;;;;;;;;;1031681;28;930;-35
2022/03/07 00:29:41;;;;;;;;;;;;;;;;;;1031393;28;946;-37
2022/03/07 00:30:11;;;;;;;;;;;;;;;;;;1031645;28;914;-37
2022/03/07 00:30:42;;;;;;;;;;;;;;;;;;1031484;28;906;-37
2022/03/07 00:31:12;;;;;;;;;;;;;;;;;;1031334;28;930;-37
2022/03/07 00:31:45;;;;;;;;;;;;;;;;;;1031050;28;1320;-36
2022/03/07 00:32:15;;;;;;;;;;;;;;;;;;1031121;28;954;-37
2022/03/07 00:32:46;;;;;;;;;;;;;;;;;;1031072;28;934;-37
2022/03/07 00:33:16;;;;;;;;;;;;;;;;;;1031110;28;930;-38
2022/03/07 00:33:48;;;;;;;;;;;;;;;;;;1027077;28;839;-33
2022/03/07 00:34:19;;;;;;;;;;;;;;;;;;1027196;28;981;-36
2022/03/07 00:34:49;;;;;;;;;;;;;;;;;;1026985;28;894;-38
2022/03/07 00:35:20;;;;;;;;;;;;;;;;;;1027180;28;958;-38
2022/03/07 00:35:51;;;;;;;;;;;;;;;;;;1031225;28;1675;-38
2022/03/07 00:36:21;;;;;;;;;;;;;;;;;;1031090;28;969;-36
2022/03/07 00:36:52;;;;;;;;;;;;;;;;;;1031291;28;1969;-37
2022/03/07 00:37:22;;;;;;;;;;;;;;;;;;1031429;28;946;-37
2022/03/07 00:37:52;;;;;;;;;;;;;;;;;;1031317;28;882;-37
2022/03/07 00:38:23;;;;;;;;;;;;;;;;;;1031471;28;997;-37
2022/03/07 00:38:53;;;;;;;;;;;;;;;;;;1031270;28;922;-35
2022/03/07 00:39:24;;;;;;;;;;;;;;;;;;1031541;28;833;-37
2022/03/07 00:39:54;;;;;;;;;;;;;;;;;;1031405;28;851;-37
2022/03/07 00:40:25;;;;;;;;;;;;;;;;;;1030996;28;665;-37
2022/03/07 00:40:55;;;;;;;;;;;;;;;;;;1031135;28;791;-38
2022/03/07 00:41:25;;;;;;;;;;;;;;;;;;1031088;28;867;-38
2022/03/07 00:41:56;;;;;;;;;;;;;;;;;;1031143;28;878;-37
2022/03/07 00:42:28;;;;;;;;;;;;;;;;;;1031480;28;858;-36
2022/03/07 00:42:58;;;;;;;;;;;;;;;;;;1031366;28;885;-37
2022/03/07 00:43:29;;;;;;;;;;;;;;;;;;1030862;28;1020;-37
2022/03/07 00:43:59;;;;;;;;;;;;;;;;;;1031462;28;850;-37
2022/03/07 00:44:29;;;;;;;;;;;;;;;;;;1031479;28;784;-35
2022/03/07 00:45:00;;;;;;;;;;;;;;;;;;1031479;28;883;-38
2022/03/07 00:45:30;;;;;;;;;;;;;;;;;;1031361;28;882;-36
2022/03/07 00:46:01;;;;;;;;;;;;;;;;;;1031325;28;1108;-37
2022/03/07 00:46:31;;;;;;;;;;;;;;;;;;1031487;28;961;-37
2022/03/07 00:47:02;;;;;;;;;;;;;;;;;;1031371;28;938;-37
2022/03/07 00:47:32;;;;;;;;;;;;;;;;;;1031264;28;953;-37
2022/03/07 00:48:03;;;;;;;;;;;;;;;;;;1031519;28;831;-37
2022/03/07 00:48:33;;;;;;;;;;;;;;;;;;1026875;28;1285;-36
2022/03/07 00:49:03;;;;;;;;;;;;;;;;;;1027211;28;926;-37
2022/03/07 00:49:34;;;;;;;;;;;;;;;;;;1026782;28;1210;-38
2022/03/07 00:50:05;;;;;;;;;;;;;;;;;;1027187;28;1014;-36
2022/03/07 00:50:42;;;;;;;;;;;;;;;;;;1026871;28;1595;-36
2022/03/07 00:51:12;;;;;;;;;;;;;;;;;;1027826;28;1233;-36
2022/03/07 00:51:42;;;;;;;;;;;;;;;;;;1031105;28;926;-37
2022/03/07 00:52:13;;;;;;;;;;;;;;;;;;1026722;28;1316;-37
2022/03/07 00:52:44;;;;;;;;;;;;;;;;;;1023162;29;1249;-37
2022/03/07 00:53:16;;;;;;;;;;;;;;;;;;1023079;29;931;-38
2022/03/07 00:53:47;;;;;;;;;;;;;;;;;;1023474;28;812;-37
2022/03/07 00:54:18;;;;;;;;;;;;;;;;;;1023494;28;888;-37
2022/03/07 00:54:49;;;;;;;;;;;;;;;;;;1022968;29;1469;-35
2022/03/07 00:55:20;;;;;;;;;;;;;;;;;;1023078;29;967;-35
2022/03/07 00:55:51;;;;;;;;;;;;;;;;;;1023242;28;796;-37
2022/03/07 00:56:21;;;;;;;;;;;;;;;;;;1027205;28;897;-36
2022/03/07 00:56:52;;;;;;;;;;;;;;;;;;1026886;28;1923;-37
2022/03/07 00:57:23;;;;;;;;;;;;;;;;;;1026913;28;815;-37
2022/03/07 00:57:53;;;;;;;;;;;;;;;;;;1026846;28;1619;-36
2022/03/07 00:58:24;;;;;;;;;;;;;;;;;;1026274;28;903;-35
2022/03/07 00:58:55;;;;;;;;;;;;;;;;;;1022915;28;1317;-37
2022/03/07 00:59:25;;;;;;;;;;;;;;;;;;1023116;28;820;-37
2022/03/07 00:59:55;;;;;;;;;;;;;;;;;;1026998;28;804;-41
2022/03/07 01:00:26;;;;;;;;;;;;;;;;;;1027122;28;838;-33
2022/03/07 01:00:56;;;;;;;;;;;;;;;;;;1030906;28;891;-37
2022/03/07 01:01:26;;;;;;;;;;;;;;;;;;1031024;28;1014;-37
2022/03/07 01:01:57;;;;;;;;;;;;;;;;;;1026981;28;1194;-37
2022/03/07 01:02:27;;;;;;;;;;;;;;;;;;1023015;29;1444;-34
2022/03/07 01:02:57;;;;;;;;;;;;;;;;;;1022907;29;800;-37
2022/03/07 01:03:28;;;;;;;;;;;;;;;;;;1023140;28;836;-37
2022/03/07 01:03:59;;;;;;;;;;;;;;;;;;1023809;28;2124;-37
2022/03/07 01:04:29;;;;;;;;;;;;;;;;;;1023137;29;768;-37
2022/03/07 01:05:00;;;;;;;;;;;;;;;;;;1023262;28;800;-37
2022/03/07 01:05:31;;;;;;;;;;;;;;;;;;1026660;28;890;-38
2022/03/07 01:06:01;;;;;;;;;;;;;;;;;;1027100;28;946;-37
2022/03/07 01:06:32;;;;;;;;;;;;;;;;;;1026935;28;788;-37
2022/03/07 01:07:03;;;;;;;;;;;;;;;;;;1027008;28;820;-38
2022/03/07 01:07:33;;;;;;;;;;;;;;;;;;1023004;28;1323;-37
2022/03/07 01:08:03;;;;;;;;;;;;;;;;;;1031048;28;906;-37
2022/03/07 01:08:34;;;;;;;;;;;;;;;;;;1026929;28;1158;-35
2022/03/07 01:09:04;;;;;;;;;;;;;;;;;;1027110;28;985;-37
2022/03/07 01:09:35;;;;;;;;;;;;;;;;;;1026961;28;866;-36
2022/03/07 01:10:06;;;;;;;;;;;;;;;;;;1027241;28;799;-37
2022/03/07 01:10:37;;;;;;;;;;;;;;;;;;1030834;28;887;-34
2022/03/07 01:11:07;;;;;;;;;;;;;;;;;;1031303;28;780;-37
2022/03/07 01:11:38;;;;;;;;;;;;;;;;;;1034983;28;808;-37
2022/03/07 01:12:09;;;;;;;;;;;;;;;;;;1035254;28;839;-37
2022/03/07 01:12:39;;;;;;;;;;;;;;;;;;1035291;28;939;-38
2022/03/07 01:13:10;;;;;;;;;;;;;;;;;;1034786;28;975;-36
2022/03/07 01:13:40;;;;;;;;;;;;;;;;;;1035328;28;807;-38
2022/03/07 01:14:11;;;;;;;;;;;;;;;;;;1035111;28;1149;-37
2022/03/07 01:14:42;;;;;;;;;;;;;;;;;;1034867;28;2472;-38
2022/03/07 01:15:14;;;;;;;;;;;;;;;;;;1031037;28;879;-38
2022/03/07 01:15:44;;;;;;;;;;;;;;;;;;1031001;28;945;-37
2022/03/07 01:16:14;;;;;;;;;;;;;;;;;;1031106;28;855;-37
2022/03/07 01:16:46;;;;;;;;;;;;;;;;;;1031020;28;1914;-36
2022/03/07 01:17:17;;;;;;;;;;;;;;;;;;1030825;28;1161;-38
2022/03/07 01:17:48;;;;;;;;;;;;;;;;;;1031306;28;783;-38
2022/03/07 01:18:18;;;;;;;;;;;;;;;;;;1035199;28;918;-37
2022/03/07 01:18:49;;;;;;;;;;;;;;;;;;1030789;28;1383;-38
2022/03/07 01:19:19;;;;;;;;;;;;;;;;;;1031057;28;795;-38
2022/03/07 01:19:50;;;;;;;;;;;;;;;;;;1028212;28;2148;-37
2022/03/07 01:20:21;;;;;;;;;;;;;;;;;;1030611;28;938;-37
2022/03/07 01:20:51;;;;;;;;;;;;;;;;;;1030903;28;875;-38
2022/03/07 01:21:22;;;;;;;;;;;;;;;;;;1026964;28;824;-34
2022/03/07 01:21:53;;;;;;;;;;;;;;;;;;1026977;28;986;-33
2022/03/07 01:22:23;;;;;;;;;;;;;;;;;;1027156;28;1186;-37
2022/03/07 01:22:53;;;;;;;;;;;;;;;;;;1030951;28;851;-37
2022/03/07 01:23:24;;;;;;;;;;;;;;;;;;1035212;28;918;-35
2022/03/07 01:23:54;;;;;;;;;;;;;;;;;;1034857;28;859;-34
2022/03/07 01:24:24;;;;;;;;;;;;;;;;;;1035587;28;942;-38
2022/03/07 01:24:55;;;;;;;;;;;;;;;;;;1034830;28;1186;-38
2022/03/07 01:25:25;;;;;;;;;;;;;;;;;;1031684;28;1204;-38
2022/03/07 01:25:56;;;;;;;;;;;;;;;;;;1031587;28;886;-37
2022/03/07 01:26:26;;;;;;;;;;;;;;;;;;1035056;28;933;-34
2022/03/07 01:26:57;;;;;;;;;;;;;;;;;;1035248;28;985;-37
2022/03/07 01:27:27;;;;;;;;;;;;;;;;;;1035520;28;815;-35
2022/03/07 01:27:58;;;;;;;;;;;;;;;;;;1034539;28;858;-38
2022/03/07 01:28:29;;;;;;;;;;;;;;;;;;1035527;28;858;-37
2022/03/07 01:28:59;;;;;;;;;;;;;;;;;;1035229;28;930;-36
2022/03/07 01:29:29;;;;;;;;;;;;;;;;;;1035498;28;935;-36
2022/03/07 01:30:00;;;;;;;;;;;;;;;;;;1035306;28;938;-36
2022/03/07 01:30:30;;;;;;;;;;;;;;;;;;1035322;28;867;-39
2022/03/07 01:31:01;;;;;;;;;;;;;;;;;;1035394;28;982;-36
2022/03/07 01:31:31;;;;;;;;;;;;;;;;;;1035469;28;847;-37
2022/03/07 01:32:02;;;;;;;;;;;;;;;;;;1035250;28;942;-35
2022/03/07 01:32:32;;;;;;;;;;;;;;;;;;1035575;28;851;-37
2022/03/07 01:33:03;;;;;;;;;;;;;;;;;;1035229;28;808;-37
2022/03/07 01:33:34;;;;;;;;;;;;;;;;;;1035540;28;863;-34
2022/03/07 01:34:05;;;;;;;;;;;;;;;;;;1035406;28;919;-38
2022/03/07 01:34:35;;;;;;;;;;;;;;;;;;1035340;28;985;-36
2022/03/07 01:35:06;;;;;;;;;;;;;;;;;;1030571;28;944;-37
2022/03/07 01:35:37;;;;;;;;;;;;;;;;;;1030749;28;1185;-37
2022/03/07 01:36:07;;;;;;;;;;;;;;;;;;1026892;28;903;-37
2022/03/07 01:36:38;;;;;;;;;;;;;;;;;;1027188;28;1965;-36
2022/03/07 01:37:08;;;;;;;;;;;;;;;;;;1030908;28;800;-37
2022/03/07 01:37:39;;;;;;;;;;;;;;;;;;1031017;28;929;-33
2022/03/07 01:38:09;;;;;;;;;;;;;;;;;;1035370;28;816;-38
2022/03/07 01:38:39;;;;;;;;;;;;;;;;;;1035404;28;891;-33
2022/03/07 01:39:10;;;;;;;;;;;;;;;;;;1035386;28;823;-38
2022/03/07 01:39:40;;;;;;;;;;;;;;;;;;1034959;28;819;-34
2022/03/07 01:40:11;;;;;;;;;;;;;;;;;;1034935;28;948;-37
2022/03/07 01:40:42;;;;;;;;;;;;;;;;;;1035179;28;993;-36
2022/03/07 01:41:12;;;;;;;;;;;;;;;;;;1034886;28;839;-38
2022/03/07 01:41:43;;;;;;;;;;;;;;;;;;1035578;28;1602;-38
2022/03/07 01:42:14;;;;;;;;;;;;;;;;;;1035257;28;816;-37
2022/03/07 01:42:44;;;;;;;;;;;;;;;;;;1034918;28;859;-36
2022/03/07 01:43:14;;;;;;;;;;;;;;;;;;1035346;28;902;-38
2022/03/07 01:43:45;;;;;;;;;;;;;;;;;;1036213;28;899;-37
2022/03/07 01:44:23;;;;;;;;;;;;;;;;;;1035577;28;1048;-35
2022/03/07 01:44:53;;;;;;;;;;;;;;;;;;1035734;28;775;-36
2022/03/07 01:45:24;;;;;;;;;;;;;;;;;;1035909;28;779;-34
2022/03/07 01:45:54;;;;;;;;;;;;;;;;;;1035672;28;1420;-38
2022/03/07 01:46:25;;;;;;;;;;;;;;;;;;1036150;28;887;-36
2022/03/07 01:46:56;;;;;;;;;;;;;;;;;;1031669;28;1481;-37
2022/03/07 01:47:32;;;;;;;;;;;;;;;;;;1027684;28;1178;-37
2022/03/07 01:48:04;;;;;;;;;;;;;;;;;;1027704;28;1319;-37
2022/03/07 01:48:35;;;;;;;;;;;;;;;;;;1028799;28;930;-38
2022/03/07 01:49:05;;;;;;;;;;;;;;;;;;1032857;28;796;-38
2022/03/07 01:49:36;;;;;;;;;;;;;;;;;;1035928;28;696;-37
2022/03/07 01:50:07;;;;;;;;;;;;;;;;;;1035569;28;1019;-36
2022/03/07 01:50:38;;;;;;;;;;;;;;;;;;1035624;28;1429;-38
2022/03/07 01:51:11;;;;;;;;;;;;;;;;;;1035745;28;1523;-38
2022/03/07 01:51:43;;;;;;;;;;;;;;;;;;1031718;28;1154;-37
2022/03/07 01:52:18;;;;;;;;;;;;;;;;;;1031598;28;1363;-38
2022/03/07 01:52:50;;;;;;;;;;;;;;;;;;1030416;28;968;-36
2022/03/07 01:53:21;;;;;;;;;;;;;;;;;;1032727;28;1169;-36
2022/03/07 01:53:53;;;;;;;;;;;;;;;;;;1035812;28;803;-37
2022/03/07 01:54:24;;;;;;;;;;;;;;;;;;1035774;28;763;-34
2022/03/07 01:54:56;;;;;;;;;;;;;;;;;;1035396;28;1385;-37
2022/03/07 01:55:26;;;;;;;;;;;;;;;;;;1031775;28;1307;-37
2022/03/07 01:56:01;;;;;;;;;;;;;;;;;;1031682;28;1366;-38
2022/03/07 01:56:32;;;;;;;;;;;;;;;;;;1031798;28;1398;-33
2022/03/07 01:57:03;;;;;;;;;;;;;;;;;;1031380;28;1906;-37
2022/03/07 01:57:37;;;;;;;;;;;;;;;;;;1030893;28;1500;-36
2022/03/07 01:58:07;;;;;;;;;;;;;;;;;;1027731;28;1301;-38
2022/03/07 01:58:38;;;;;;;;;;;;;;;;;;1027562;28;1205;-36
2022/03/07 01:59:11;;;;;;;;;;;;;;;;;;1028318;28;768;-38
2022/03/07 01:59:42;;;;;;;;;;;;;;;;;;1032189;28;1161;-37
2022/03/07 02:00:14;;;;;;;;;;;;;;;;;;1031124;28;891;-38
2022/03/07 02:00:44;;;;;;;;;;;;;;;;;;1027651;28;1254;-37
2022/03/07 02:01:16;;;;;;;;;;;;;;;;;;1027846;28;1301;-37
2022/03/07 02:01:47;;;;;;;;;;;;;;;;;;1031822;28;834;-38
2022/03/07 02:02:17;;;;;;;;;;;;;;;;;;1031651;28;1319;-38
2022/03/07 02:02:48;;;;;;;;;;;;;;;;;;1031837;28;1542;-38
2022/03/07 02:03:22;;;;;;;;;;;;;;;;;;1031611;28;1380;-37
2022/03/07 02:03:52;;;;;;;;;;;;;;;;;;1031106;28;754;-38
2022/03/07 02:04:23;;;;;;;;;;;;;;;;;;1031561;28;1461;-37
2022/03/07 02:04:53;;;;;;;;;;;;;;;;;;1031296;28;925;-37
2022/03/07 02:05:24;;;;;;;;;;;;;;;;;;1031415;28;1387;-34
2022/03/07 02:06:02;;;;;;;;;;;;;;;;;;1032934;28;842;-35
2022/03/07 02:06:33;;;;;;;;;;;;;;;;;;1035478;28;1196;-36
2022/03/07 02:07:03;;;;;;;;;;;;;;;;;;1035844;28;945;-37
2022/03/07 02:07:34;;;;;;;;;;;;;;;;;;1031385;28;1239;-33
2022/03/07 02:08:05;;;;;;;;;;;;;;;;;;1031435;28;1268;-37
2022/03/07 02:08:44;;;;;;;;;;;;;;;;;;1031656;28;1323;-37
2022/03/07 02:09:21;;;;;;;;;;;;;;;;;;1027492;28;1485;-35
2022/03/07 02:09:52;;;;;;;;;;;;;;;;;;1029784;28;910;-36
2022/03/07 02:10:28;;;;;;;;;;;;;;;;;;1026165;28;1309;-35
2022/03/07 02:11:00;;;;;;;;;;;;;;;;;;1024829;28;1286;-37
2022/03/07 02:11:33;;;;;;;;;;;;;;;;;;1027563;28;1342;-37
2022/03/07 02:12:05;;;;;;;;;;;;;;;;;;1030955;28;1248;-38
2022/03/07 02:12:36;;;;;;;;;;;;;;;;;;1032056;28;1213;-37
2022/03/07 02:13:17;;;;;;;;;;;;;;;;;;1031574;28;1462;-36
2022/03/07 02:13:53;;;;;;;;;;;;;;;;;;1025385;28;2240;-38
2022/03/07 02:14:24;;;;;;;;;;;;;;;;;;1023578;28;1179;-37
2022/03/07 02:14:58;;;;;;;;;;;;;;;;;;1023584;29;1304;-37
2022/03/07 02:15:29;;;;;;;;;;;;;;;;;;1028035;28;1149;-37
2022/03/07 02:16:00;;;;;;;;;;;;;;;;;;1032234;28;1421;-37
2022/03/07 02:16:34;;;;;;;;;;;;;;;;;;1031550;28;1204;-37
2022/03/07 02:17:04;;;;;;;;;;;;;;;;;;1031009;28;1915;-37
2022/03/07 02:17:35;;;;;;;;;;;;;;;;;;1027521;28;732;-34
2022/03/07 02:18:05;;;;;;;;;;;;;;;;;;1027578;28;1162;-37
2022/03/07 02:18:36;;;;;;;;;;;;;;;;;;1031618;28;918;-38
2022/03/07 02:19:27;;;;;;;;;;;;;;;;;;1035397;28;1204;-37
2022/03/07 02:19:58;;;;;;;;;;;;;;;;;;1035337;28;811;-38
2022/03/07 02:20:28;;;;;;;;;;;;;;;;;;1035492;28;831;-37
2022/03/07 02:21:04;;;;;;;;;;;;;;;;;;1035719;28;826;-36
2022/03/07 02:21:34;;;;;;;;;;;;;;;;;;1031583;28;820;-37
2022/03/07 02:22:16;;;;;;;;;;;;;;;;;;1035705;28;1176;-36
2022/03/07 02:22:49;;;;;;;;;;;;;;;;;;1035606;28;1267;-38
2022/03/07 02:23:20;;;;;;;;;;;;;;;;;;1035467;28;1183;-38
2022/03/07 02:23:50;;;;;;;;;;;;;;;;;;1035196;28;950;-36
2022/03/07 02:24:21;;;;;;;;;;;;;;;;;;1027410;28;1361;-36
2022/03/07 02:24:57;;;;;;;;;;;;;;;;;;1019482;29;1339;-38
2022/03/07 02:25:27;;;;;;;;;;;;;;;;;;1023895;28;1289;-37
2022/03/07 02:25:58;;;;;;;;;;;;;;;;;;1028360;28;1273;-35
2022/03/07 02:26:29;;;;;;;;;;;;;;;;;;1027362;28;1159;-35
2022/03/07 02:27:00;;;;;;;;;;;;;;;;;;1026907;28;1471;-36
2022/03/07 02:27:31;;;;;;;;;;;;;;;;;;1023164;29;848;-37
2022/03/07 02:28:02;;;;;;;;;;;;;;;;;;1024087;28;883;-37
2022/03/07 02:28:32;;;;;;;;;;;;;;;;;;1027702;28;890;-35
2022/03/07 02:29:03;;;;;;;;;;;;;;;;;;1027501;28;1301;-36
2022/03/07 02:29:36;;;;;;;;;;;;;;;;;;1027679;28;870;-34
2022/03/07 02:30:10;;;;;;;;;;;;;;;;;;1023515;29;1318;-37
2022/03/07 02:30:43;;;;;;;;;;;;;;;;;;1024805;28;1295;-37
2022/03/07 02:31:18;;;;;;;;;;;;;;;;;;1023636;29;903;-38
2022/03/07 02:31:50;;;;;;;;;;;;;;;;;;1019424;29;1033;-31
2022/03/07 02:32:24;;;;;;;;;;;;;;;;;;1016804;29;1468;-37
2022/03/07 02:32:54;;;;;;;;;;;;;;;;;;1020789;29;1151;-35
2022/03/07 02:33:25;;;;;;;;;;;;;;;;;;1019535;29;1850;-34
2022/03/07 02:33:55;;;;;;;;;;;;;;;;;;1019868;29;1190;-37
2022/03/07 02:34:26;;;;;;;;;;;;;;;;;;1026899;28;1013;-36
2022/03/07 02:34:57;;;;;;;;;;;;;;;;;;1027475;28;1451;-37
2022/03/07 02:35:28;;;;;;;;;;;;;;;;;;1027755;28;1292;-35
2022/03/07 02:36:01;;;;;;;;;;;;;;;;;;1031373;28;851;-37
2022/03/07 02:36:31;;;;;;;;;;;;;;;;;;1027031;28;1368;-37
2022/03/07 02:37:04;;;;;;;;;;;;;;;;;;1023321;29;1911;-35
2022/03/07 02:37:45;;;;;;;;;;;;;;;;;;1021251;29;1202;-37
2022/03/07 02:38:16;;;;;;;;;;;;;;;;;;1021334;29;1387;-37
2022/03/07 02:38:49;;;;;;;;;;;;;;;;;;1023425;29;1254;-38
2022/03/07 02:39:20;;;;;;;;;;;;;;;;;;1019629;29;1210;-37
2022/03/07 02:39:50;;;;;;;;;;;;;;;;;;1023187;29;1167;-37
2022/03/07 02:40:21;;;;;;;;;;;;;;;;;;1019666;29;1582;-37
2022/03/07 02:40:52;;;;;;;;;;;;;;;;;;1019563;29;795;-36
2022/03/07 02:41:24;;;;;;;;;;;;;;;;;;1019542;29;1172;-38
2022/03/07 02:41:56;;;;;;;;;;;;;;;;;;1015576;29;1208;-38
2022/03/07 02:42:27;;;;;;;;;;;;;;;;;;1019941;29;1337;-38
2022/03/07 02:42:58;;;;;;;;;;;;;;;;;;1027633;28;803;-35
2022/03/07 02:43:28;;;;;;;;;;;;;;;;;;1027404;28;989;-36
2022/03/07 02:43:59;;;;;;;;;;;;;;;;;;1027675;28;1289;-34
2022/03/07 02:44:30;;;;;;;;;;;;;;;;;;1031615;28;874;-36
2022/03/07 02:45:01;;;;;;;;;;;;;;;;;;1031541;28;862;-37
2022/03/07 02:45:31;;;;;;;;;;;;;;;;;;1027213;28;1448;-35
2022/03/07 02:46:02;;;;;;;;;;;;;;;;;;1027321;28;1406;-37
2022/03/07 02:46:32;;;;;;;;;;;;;;;;;;1023282;29;1190;-37
2022/03/07 02:47:03;;;;;;;;;;;;;;;;;;1023549;28;1167;-38
2022/03/07 02:47:33;;;;;;;;;;;;;;;;;;1027312;28;840;-35
2022/03/07 02:48:04;;;;;;;;;;;;;;;;;;1023576;28;895;-34
2022/03/07 02:48:34;;;;;;;;;;;;;;;;;;1027608;28;923;-37
2022/03/07 02:49:05;;;;;;;;;;;;;;;;;;1027099;28;582;-38
2022/03/07 02:49:35;;;;;;;;;;;;;;;;;;1027381;28;1229;-37
2022/03/07 02:50:06;;;;;;;;;;;;;;;;;;1031496;28;917;-37
2022/03/07 02:50:36;;;;;;;;;;;;;;;;;;1027326;28;950;-37
2022/03/07 02:51:07;;;;;;;;;;;;;;;;;;1023482;29;1543;-38
2022/03/07 02:51:38;;;;;;;;;;;;;;;;;;1023346;29;1261;-34
2022/03/07 02:52:09;;;;;;;;;;;;;;;;;;1019441;29;1396;-35
2022/03/07 02:52:39;;;;;;;;;;;;;;;;;;1019815;29;1010;-36
2022/03/07 02:53:10;;;;;;;;;;;;;;;;;;1023678;28;876;-38
2022/03/07 02:53:40;;;;;;;;;;;;;;;;;;1027457;28;931;-35
2022/03/07 02:54:10;;;;;;;;;;;;;;;;;;1031719;28;962;-40
2022/03/07 02:54:41;;;;;;;;;;;;;;;;;;1031409;28;922;-37
2022/03/07 02:55:11;;;;;;;;;;;;;;;;;;1031227;28;851;-35
2022/03/07 02:55:41;;;;;;;;;;;;;;;;;;1031588;28;907;-38
2022/03/07 02:56:12;;;;;;;;;;;;;;;;;;1031753;28;930;-36
2022/03/07 02:56:44;;;;;;;;;;;;;;;;;;1031144;28;1907;-37
2022/03/07 02:57:15;;;;;;;;;;;;;;;;;;1031753;28;888;-36
2022/03/07 02:57:45;;;;;;;;;;;;;;;;;;1031574;28;843;-33
2022/03/07 02:58:15;;;;;;;;;;;;;;;;;;1031799;28;954;-36
2022/03/07 02:58:46;;;;;;;;;;;;;;;;;;1031853;28;910;-37
2022/03/07 02:59:16;;;;;;;;;;;;;;;;;;1031860;28;630;-33
2022/03/07 02:59:47;;;;;;;;;;;;;;;;;;1031764;28;847;-35
2022/03/07 03:00:17;;;;;;;;;;;;;;;;;;1031834;28;887;-36
2022/03/07 03:00:48;;;;;;;;;;;;;;;;;;1031683;28;938;-36
2022/03/07 03:01:18;;;;;;;;;;;;;;;;;;1031886;28;910;-37
2022/03/07 03:01:49;;;;;;;;;;;;;;;;;;1031810;28;866;-35
2022/03/07 03:02:21;;;;;;;;;;;;;;;;;;1031864;28;875;-36
2022/03/07 03:02:51;;;;;;;;;;;;;;;;;;1031812;28;902;-35
2022/03/07 03:03:22;;;;;;;;;;;;;;;;;;1031864;28;802;-37
2022/03/07 03:03:52;;;;;;;;;;;;;;;;;;1031531;28;883;-37
2022/03/07 03:04:22;;;;;;;;;;;;;;;;;;1031596;28;970;-36
2022/03/07 03:04:53;;;;;;;;;;;;;;;;;;1031705;28;887;-36
2022/03/07 03:05:23;;;;;;;;;;;;;;;;;;1031791;28;867;-34
2022/03/07 03:05:54;;;;;;;;;;;;;;;;;;1031752;28;1136;-35
2022/03/07 03:06:24;;;;;;;;;;;;;;;;;;1031717;28;938;-36
2022/03/07 03:06:55;;;;;;;;;;;;;;;;;;1031777;28;907;-36
2022/03/07 03:07:26;;;;;;;;;;;;;;;;;;1031689;28;989;-34
2022/03/07 03:07:56;;;;;;;;;;;;;;;;;;1031797;28;910;-37
2022/03/07 03:08:26;;;;;;;;;;;;;;;;;;1034888;28;1202;-35
2022/03/07 03:08:57;;;;;;;;;;;;;;;;;;1035835;28;1048;-34
2022/03/07 03:09:27;;;;;;;;;;;;;;;;;;1035883;28;870;-35
2022/03/07 03:09:58;;;;;;;;;;;;;;;;;;1035878;28;815;-37
2022/03/07 03:10:28;;;;;;;;;;;;;;;;;;1035827;28;883;-35
2022/03/07 03:10:58;;;;;;;;;;;;;;;;;;1035900;28;834;-37
2022/03/07 03:11:29;;;;;;;;;;;;;;;;;;1035083;28;918;-36
2022/03/07 03:11:59;;;;;;;;;;;;;;;;;;1035876;28;894;-36
2022/03/07 03:12:29;;;;;;;;;;;;;;;;;;1035731;28;850;-37
2022/03/07 03:13:00;;;;;;;;;;;;;;;;;;1035933;28;894;-38
2022/03/07 03:13:30;;;;;;;;;;;;;;;;;;1035909;28;871;-36
2022/03/07 03:14:01;;;;;;;;;;;;;;;;;;1035753;28;914;-36
2022/03/07 03:14:31;;;;;;;;;;;;;;;;;;1035912;28;874;-34
2022/03/07 03:15:02;;;;;;;;;;;;;;;;;;1035770;28;787;-35
2022/03/07 03:15:32;;;;;;;;;;;;;;;;;;1035687;28;894;-34
2022/03/07 03:16:03;;;;;;;;;;;;;;;;;;1035812;28;764;-37
2022/03/07 03:16:33;;;;;;;;;;;;;;;;;;1035800;28;811;-37
2022/03/07 03:17:04;;;;;;;;;;;;;;;;;;1035591;28;1985;-36
2022/03/07 03:17:34;;;;;;;;;;;;;;;;;;1035815;28;899;-37
2022/03/07 03:18:04;;;;;;;;;;;;;;;;;;1035613;28;871;-35
2022/03/07 03:18:35;;;;;;;;;;;;;;;;;;1035963;28;819;-36
2022/03/07 03:19:05;;;;;;;;;;;;;;;;;;1034937;28;768;-38
2022/03/07 03:19:35;;;;;;;;;;;;;;;;;;1035979;28;804;-38
2022/03/07 03:20:06;;;;;;;;;;;;;;;;;;1035742;28;848;-36
2022/03/07 03:20:36;;;;;;;;;;;;;;;;;;1035702;28;1499;-37
2022/03/07 03:21:07;;;;;;;;;;;;;;;;;;1035735;28;843;-37
2022/03/07 03:21:37;;;;;;;;;;;;;;;;;;1035773;28;854;-38
2022/03/07 03:22:07;;;;;;;;;;;;;;;;;;1035603;28;1025;-37
2022/03/07 03:22:38;;;;;;;;;;;;;;;;;;1035887;28;851;-36
2022/03/07 03:23:08;;;;;;;;;;;;;;;;;;1035576;28;893;-36
2022/03/07 03:23:39;;;;;;;;;;;;;;;;;;1035951;28;800;-35
2022/03/07 03:24:09;;;;;;;;;;;;;;;;;;1035741;28;1009;-37
2022/03/07 03:24:40;;;;;;;;;;;;;;;;;;1035821;28;923;-36
2022/03/07 03:25:11;;;;;;;;;;;;;;;;;;1034375;28;1121;-34
2022/03/07 03:25:41;;;;;;;;;;;;;;;;;;1027378;28;962;-38
2022/03/07 03:26:12;;;;;;;;;;;;;;;;;;1026511;28;950;-37
2022/03/07 03:26:42;;;;;;;;;;;;;;;;;;1027397;28;903;-38
2022/03/07 03:27:12;;;;;;;;;;;;;;;;;;1027267;28;982;-37
2022/03/07 03:27:43;;;;;;;;;;;;;;;;;;1031576;28;899;-37
2022/03/07 03:28:14;;;;;;;;;;;;;;;;;;1027357;28;894;-37
2022/03/07 03:28:44;;;;;;;;;;;;;;;;;;1031266;28;800;-35
2022/03/07 03:29:14;;;;;;;;;;;;;;;;;;1031501;28;844;-37
2022/03/07 03:29:45;;;;;;;;;;;;;;;;;;1031358;28;993;-38
2022/03/07 03:30:15;;;;;;;;;;;;;;;;;;1035797;28;977;-36
2022/03/07 03:30:45;;;;;;;;;;;;;;;;;;1035721;28;930;-38
2022/03/07 03:31:16;;;;;;;;;;;;;;;;;;1035738;28;883;-38
2022/03/07 03:31:46;;;;;;;;;;;;;;;;;;1035748;28;938;-38
2022/03/07 03:32:17;;;;;;;;;;;;;;;;;;1035839;28;878;-35
2022/03/07 03:32:47;;;;;;;;;;;;;;;;;;1035718;28;957;-37
2022/03/07 03:33:18;;;;;;;;;;;;;;;;;;1035823;28;981;-37
2022/03/07 03:33:49;;;;;;;;;;;;;;;;;;1034986;28;807;-37
2022/03/07 03:34:20;;;;;;;;;;;;;;;;;;1035855;28;989;-37
2022/03/07 03:34:50;;;;;;;;;;;;;;;;;;1035762;28;914;-36
2022/03/07 03:35:21;;;;;;;;;;;;;;;;;;1035766;28;902;-37
2022/03/07 03:35:51;;;;;;;;;;;;;;;;;;1035595;28;891;-33
2022/03/07 03:36:22;;;;;;;;;;;;;;;;;;1035791;28;847;-37
2022/03/07 03:36:52;;;;;;;;;;;;;;;;;;1035498;28;1975;-37
2022/03/07 03:37:24;;;;;;;;;;;;;;;;;;1035839;28;898;-37
2022/03/07 03:37:54;;;;;;;;;;;;;;;;;;1035438;28;874;-36